Time;durP1;ratioP1;P1;durP2;ratioP2;P2;SDS_P1;SDS_P2;PMS_P1;PMS_P2;Temp;Humidity;BMP_temperature;BMP_pressure;BME280_temperature;BME280_humidity;BME280_pressure;Samples;Min_cycle;Max_cycle;Signal;HPM_P1;HPM_P2
2022/10/27 00:01:39;;;;;;;21.10;5.10;;;13.40;99.90;;;;;;4940606;28;20391;-83
2022/10/27 00:04:04;;;;;;;18.88;4.45;;;13.40;99.90;;;;;;4939330;28;20047;-86
2022/10/27 00:06:30;;;;;;;11.85;3.20;;;13.40;99.90;;;;;;4943055;28;20130;-87
2022/10/27 00:08:55;;;;;;;13.60;3.67;;;13.40;99.90;;;;;;4956241;28;20626;-82
2022/10/27 00:11:21;;;;;;;10.93;3.60;;;13.30;99.90;;;;;;4954876;28;20050;-84
2022/10/27 00:13:47;;;;;;;15.35;4.32;;;13.30;99.90;;;;;;4948876;28;20043;-74
2022/10/27 00:16:16;;;;;;;16.08;4.10;;;13.30;99.90;;;;;;4946469;28;20042;-86
2022/10/27 00:18:43;;;;;;;9.67;4.00;;;13.10;99.90;;;;;;4946312;28;20130;-82
2022/10/27 00:21:18;;;;;;;11.77;4.63;;;13.10;99.90;;;;;;4955613;28;20303;-76
2022/10/27 00:23:46;;;;;;;17.17;4.88;;;13.10;99.90;;;;;;4956905;28;20094;-80
2022/10/27 00:26:13;;;;;;;11.45;4.05;;;13.10;99.90;;;;;;4931538;28;20134;-77
2022/10/27 00:28:40;;;;;;;9.13;3.67;;;13.10;99.90;;;;;;4941802;28;20047;-76
2022/10/27 00:31:20;;;;;;;8.82;3.95;;;13.10;99.90;;;;;;4938756;29;20054;-87
2022/10/27 00:33:47;;;;;;;13.52;6.30;;;13.10;99.90;;;;;;4954967;28;20047;-74
2022/10/27 00:36:19;;;;;;;13.73;4.63;;;13.00;99.90;;;;;;4944661;28;20036;-87
2022/10/27 00:38:45;;;;;;;11.68;4.90;;;13.00;99.90;;;;;;4925909;28;20040;-85
2022/10/27 00:41:30;;;;;;;8.07;4.03;;;13.00;99.90;;;;;;4936752;28;20051;-83
2022/10/27 00:43:58;;;;;;;8.63;4.32;;;13.00;99.90;;;;;;4937550;28;20059;-84
2022/10/27 00:46:43;;;;;;;14.27;5.32;;;13.00;99.90;;;;;;4947625;28;20043;-86
2022/10/27 00:49:13;;;;;;;12.48;6.05;;;13.00;99.90;;;;;;4940259;29;20051;-78
2022/10/27 00:51:46;;;;;;;16.25;5.20;;;13.00;99.90;;;;;;4955687;28;20039;-80
2022/10/27 00:54:14;;;;;;;9.38;4.53;;;13.00;99.90;;;;;;4947917;28;20055;-81
2022/10/27 00:56:41;;;;;;;13.45;6.20;;;13.10;99.90;;;;;;4948627;28;20046;-83
2022/10/27 00:59:07;;;;;;;7.28;4.60;;;12.90;99.90;;;;;;4963512;28;20039;-83
2022/10/27 01:01:35;;;;;;;9.73;5.05;;;13.00;99.90;;;;;;4958040;28;20054;-85
2022/10/27 01:04:03;;;;;;;9.10;5.53;;;12.90;99.90;;;;;;4948858;28;20060;-85
2022/10/27 01:06:29;;;;;;;15.48;6.18;;;12.90;99.90;;;;;;4936122;28;20087;-85
2022/10/27 01:08:56;;;;;;;13.90;6.60;;;12.90;99.90;;;;;;4946399;28;20443;-74
2022/10/27 01:11:22;;;;;;;23.13;6.78;;;12.90;99.90;;;;;;4942337;28;20039;-85
2022/10/27 01:13:48;;;;;;;18.23;7.40;;;13.00;99.90;;;;;;4931745;28;20101;-84
2022/10/27 01:16:58;;;;;;;21.30;8.40;;;12.90;99.90;;;;;;4933271;28;20047;-82
2022/10/27 01:19:43;;;;;;;12.23;6.90;;;13.00;99.90;;;;;;4899818;29;20070;-86
2022/10/27 01:22:35;;;;;;;23.40;7.07;;;13.00;99.90;;;;;;4943289;28;20134;-85
2022/10/27 01:25:22;;;;;;;16.00;7.35;;;13.10;99.90;;;;;;4968982;28;20031;-78
2022/10/27 01:28:18;;;;;;;18.35;8.63;;;13.00;99.90;;;;;;4973747;28;20276;-75
2022/10/27 01:31:10;;;;;;;18.08;8.68;;;13.10;99.90;;;;;;4981264;28;20083;-84
2022/10/27 01:33:45;;;;;;;15.20;8.65;;;13.20;99.90;;;;;;4946489;28;20059;-83
2022/10/27 01:36:22;;;;;;;17.63;9.77;;;13.20;99.90;;;;;;4968735;28;20054;-74
2022/10/27 01:39:10;;;;;;;20.17;10.32;;;13.30;99.90;;;;;;4969183;28;20142;-74
2022/10/27 01:41:46;;;;;;;14.15;8.50;;;13.30;99.90;;;;;;4981876;28;20054;-75
2022/10/27 01:44:18;;;;;;;17.02;9.05;;;13.30;99.90;;;;;;4980971;28;20048;-78
2022/10/27 01:46:46;;;;;;;15.48;9.93;;;13.20;99.90;;;;;;4949738;28;20038;-81
2022/10/27 01:49:11;;;;;;;17.60;9.93;;;13.30;99.90;;;;;;4964193;28;20062;-76
2022/10/27 01:51:37;;;;;;;14.32;8.13;;;13.20;99.90;;;;;;4957664;28;20054;-81
2022/10/27 01:54:04;;;;;;;14.93;8.85;;;13.20;99.90;;;;;;4949701;28;20039;-86
2022/10/27 01:56:47;;;;;;;11.10;8.38;;;13.20;99.90;;;;;;4950078;28;20035;-85
2022/10/27 01:59:31;;;;;;;19.33;8.43;;;13.30;99.90;;;;;;4956712;28;20043;-81
2022/10/27 02:02:25;;;;;;;24.38;9.63;;;13.20;99.90;;;;;;4936598;29;20043;-88
2022/10/27 02:05:03;;;;;;;17.08;8.88;;;13.20;99.90;;;;;;4941331;28;20043;-85
2022/10/27 02:08:04;;;;;;;17.60;8.93;;;13.20;99.90;;;;;;4946794;28;20086;-86
2022/10/27 02:10:46;;;;;;;12.90;8.07;;;13.30;99.90;;;;;;4947446;28;20486;-86
2022/10/27 02:13:12;;;;;;;16.38;7.93;;;13.30;99.90;;;;;;4942787;28;20043;-76
2022/10/27 02:15:42;;;;;;;19.42;9.30;;;13.30;99.90;;;;;;4936191;28;20227;-86
2022/10/27 02:18:22;;;;;;;13.95;9.13;;;13.20;99.90;;;;;;4949939;28;20043;-88
2022/10/27 02:20:52;;;;;;;13.02;9.05;;;13.20;99.90;;;;;;4957295;28;20471;-89
2022/10/27 02:23:20;;;;;;;;;;;13.20;99.90;;;;;;4948861;28;20063;-74
2022/10/27 02:25:57;;;;;;;15.55;8.50;;;13.20;99.90;;;;;;4966748;28;19974;-73
2022/10/27 02:28:29;;;;;;;15.57;8.82;;;13.10;99.90;;;;;;4952611;28;20031;-88
2022/10/27 02:30:58;;;;;;;22.48;10.02;;;13.10;99.90;;;;;;4948638;28;20074;-87
2022/10/27 02:33:24;;;;;;;16.45;8.43;;;13.00;99.90;;;;;;4939181;28;20119;-89
2022/10/27 02:35:51;;;;;;;15.80;8.27;;;12.90;99.90;;;;;;4941132;28;20130;-86
2022/10/27 02:38:17;;;;;;;11.32;8.18;;;13.00;99.90;;;;;;4930418;29;20047;-74
2022/10/27 02:40:42;;;;;;;13.80;10.63;;;12.90;99.90;;;;;;4941101;28;20458;-84
2022/10/27 02:43:08;;;;;;;20.20;9.65;;;13.00;99.90;;;;;;4938892;28;20075;-87
2022/10/27 02:45:34;;;;;;;19.45;9.25;;;13.00;99.90;;;;;;4945407;28;20427;-76
2022/10/27 02:47:59;;;;;;;18.25;9.00;;;12.90;99.90;;;;;;4951554;28;20115;-86
2022/10/27 02:50:25;;;;;;;15.93;10.52;;;13.00;99.90;;;;;;4933750;29;20059;-82
2022/10/27 02:52:51;;;;;;;18.55;10.52;;;13.00;99.90;;;;;;4950004;28;20077;-83
2022/10/27 02:55:16;;;;;;;16.50;10.98;;;13.00;99.90;;;;;;4941307;28;20459;-88
2022/10/27 02:57:43;;;;;;;17.27;11.00;;;13.00;99.90;;;;;;4950548;28;20491;-78
2022/10/27 03:00:09;;;;;;;16.00;11.35;;;13.10;99.90;;;;;;4964399;28;20398;-86
2022/10/27 03:02:35;;;;;;;13.20;10.25;;;13.00;99.90;;;;;;4952225;28;20051;-79
2022/10/27 03:05:02;;;;;;;16.08;8.95;;;13.10;99.90;;;;;;4952989;28;20050;-85
2022/10/27 03:07:28;;;;;;;16.60;8.98;;;13.10;99.90;;;;;;4963865;28;20075;-83
2022/10/27 03:09:54;;;;;;;18.67;10.35;;;13.10;99.90;;;;;;4945450;28;20044;-85
2022/10/27 03:12:19;;;;;;;15.55;10.95;;;13.10;99.90;;;;;;4927971;29;20047;-79
2022/10/27 03:14:45;;;;;;;13.82;9.48;;;13.20;99.90;;;;;;4937525;28;20578;-85
2022/10/27 03:17:11;;;;;;;16.95;9.90;;;13.20;99.90;;;;;;4935637;28;20122;-79
2022/10/27 03:19:36;;;;;;;17.60;10.20;;;13.20;99.90;;;;;;4951006;28;20095;-85
2022/10/27 03:22:02;;;;;;;18.98;9.90;;;13.10;99.90;;;;;;4958805;28;20099;-85
2022/10/27 03:24:28;;;;;;;16.38;9.00;;;13.30;99.90;;;;;;4951421;28;20047;-75
2022/10/27 03:26:53;;;;;;;15.07;8.75;;;13.20;99.90;;;;;;4946770;28;20075;-87
2022/10/27 03:29:19;;;;;;;19.98;9.85;;;13.20;99.90;;;;;;4934332;28;20082;-83
2022/10/27 03:31:45;;;;;;;15.45;8.90;;;13.30;99.90;;;;;;4937039;28;20070;-73
2022/10/27 03:34:10;;;;;;;13.10;9.52;;;13.30;99.90;;;;;;4947966;28;20412;-87
2022/10/27 03:36:36;;;;;;;15.55;9.52;;;13.30;99.90;;;;;;4952352;28;20457;-87
2022/10/27 03:39:02;;;;;;;24.17;10.15;;;13.30;99.90;;;;;;4939602;28;20119;-75
2022/10/27 03:41:27;;;;;;;16.63;9.68;;;13.30;99.90;;;;;;4914560;29;20055;-87
2022/10/27 03:43:53;;;;;;;16.67;8.30;;;13.30;99.90;;;;;;4916070;28;20135;-85
2022/10/27 03:46:19;;;;;;;14.20;9.75;;;13.30;99.90;;;;;;4939219;28;20040;-82
2022/10/27 03:48:44;;;;;;;28.50;10.23;;;13.30;99.90;;;;;;4944137;28;20561;-86
2022/10/27 03:51:10;;;;;;;15.73;8.20;;;13.30;99.90;;;;;;4934198;28;20106;-77
2022/10/27 03:53:35;;;;;;;14.18;8.77;;;13.20;99.90;;;;;;4945806;28;20056;-84
2022/10/27 03:56:01;;;;;;;22.25;11.15;;;13.20;99.90;;;;;;4933134;28;20047;-86
2022/10/27 03:58:27;;;;;;;17.85;9.43;;;13.30;99.90;;;;;;4942930;28;20054;-81
2022/10/27 04:00:52;;;;;;;11.63;7.95;;;13.30;99.90;;;;;;4918422;29;20046;-83
2022/10/27 04:03:18;;;;;;;19.50;9.48;;;13.20;99.90;;;;;;4947094;28;20047;-85
2022/10/27 04:05:48;;;;;;;15.57;9.40;;;13.20;99.90;;;;;;4953590;28;20410;-85
2022/10/27 04:08:14;;;;;;;12.52;8.02;;;13.30;99.90;;;;;;4942639;28;20114;-87
2022/10/27 04:10:39;;;;;;;15.52;9.20;;;13.20;99.90;;;;;;4918665;28;20043;-81
2022/10/27 04:13:05;;;;;;;11.38;8.57;;;13.20;99.90;;;;;;4965022;28;20114;-88
2022/10/27 04:15:30;;;;;;;15.20;8.55;;;13.10;99.90;;;;;;4923452;29;20047;-89
2022/10/27 04:17:58;;;;;;;14.65;8.02;;;13.10;99.90;;;;;;4944347;28;20082;-75
2022/10/27 04:20:24;;;;;;;19.80;9.85;;;13.10;99.90;;;;;;4947236;28;20086;-88
2022/10/27 04:22:50;;;;;;;22.52;9.65;;;13.20;99.90;;;;;;4954698;28;20039;-90
2022/10/27 04:25:16;;;;;;;13.70;8.27;;;13.00;99.90;;;;;;4947932;28;20047;-85
2022/10/27 04:27:41;;;;;;;12.13;8.73;;;13.10;99.90;;;;;;4933850;28;20051;-80
2022/10/27 04:30:07;;;;;;;14.40;9.15;;;13.10;99.90;;;;;;4913708;29;20059;-88
2022/10/27 04:32:33;;;;;;;21.70;9.20;;;13.10;99.90;;;;;;4936310;28;20053;-75
2022/10/27 04:34:59;;;;;;;11.82;8.45;;;13.00;99.90;;;;;;4948544;28;20121;-87
2022/10/27 04:37:25;;;;;;;16.10;8.70;;;13.10;99.90;;;;;;4943492;28;20102;-90
2022/10/27 04:39:50;;;;;;;15.38;9.68;;;13.10;99.90;;;;;;4941029;28;20039;-85
2022/10/27 04:42:16;;;;;;;14.65;8.88;;;13.00;99.90;;;;;;4941263;28;20143;-84
2022/10/27 04:44:42;;;;;;;24.90;12.05;;;12.90;99.90;;;;;;4959023;28;20043;-76
2022/10/27 04:47:07;;;;;;;20.92;9.73;;;13.00;99.90;;;;;;4941913;28;20099;-82
2022/10/27 04:49:33;;;;;;;26.67;10.10;;;12.90;99.90;;;;;;4955379;28;20344;-84
2022/10/27 04:51:59;;;;;;;19.80;10.57;;;12.90;99.90;;;;;;4952156;28;20046;-87
2022/10/27 04:54:24;;;;;;;16.70;10.10;;;13.00;99.90;;;;;;4933777;28;20139;-83
2022/10/27 04:56:50;;;;;;;14.30;8.25;;;12.90;99.90;;;;;;4944868;29;20078;-87
2022/10/27 04:59:15;;;;;;;16.83;10.07;;;13.00;99.90;;;;;;4922934;29;20226;-89
2022/10/27 05:01:41;;;;;;;24.60;9.95;;;12.90;99.90;;;;;;4933010;28;20090;-75
2022/10/27 05:04:07;;;;;;;19.42;10.40;;;13.00;99.90;;;;;;4964926;28;20453;-83
2022/10/27 05:06:32;;;;;;;17.30;10.32;;;12.90;99.90;;;;;;4925537;29;20052;-88
2022/10/27 05:08:58;;;;;;;16.27;11.00;;;13.00;99.90;;;;;;4952324;28;20057;-84
2022/10/27 05:11:24;;;;;;;18.33;10.35;;;12.90;99.90;;;;;;4963370;28;20071;-73
2022/10/27 05:13:50;;;;;;;17.52;10.63;;;13.00;99.90;;;;;;4949969;29;20020;-75
2022/10/27 05:16:18;;;;;;;13.40;8.65;;;12.80;99.90;;;;;;4937514;28;20413;-85
2022/10/27 05:18:44;;;;;;;16.95;11.23;;;13.10;99.90;;;;;;4950103;28;20043;-87
2022/10/27 05:21:09;;;;;;;20.45;11.90;;;13.00;99.90;;;;;;4950454;28;20394;-79
2022/10/27 05:23:35;;;;;;;21.33;10.55;;;13.00;99.90;;;;;;4950672;28;20044;-80
2022/10/27 05:26:01;;;;;;;17.52;9.38;;;13.10;99.90;;;;;;4949199;28;20478;-80
2022/10/27 05:28:27;;;;;;;19.20;10.13;;;13.10;99.90;;;;;;4945346;28;20051;-81
2022/10/27 05:30:59;;;;;;;17.10;10.60;;;13.00;99.90;;;;;;4953624;28;20098;-86
2022/10/27 05:33:26;;;;;;;19.85;11.20;;;13.10;99.90;;;;;;4950055;28;20564;-78
2022/10/27 05:35:52;;;;;;;18.98;10.35;;;13.10;99.90;;;;;;4921036;29;20061;-86
2022/10/27 05:38:18;;;;;;;19.45;11.45;;;13.10;99.90;;;;;;4955224;28;20043;-79
2022/10/27 05:40:43;;;;;;;16.90;10.18;;;13.20;99.90;;;;;;4942897;28;20054;-85
2022/10/27 05:43:10;;;;;;;18.88;11.00;;;13.10;99.90;;;;;;4924326;29;20039;-81
2022/10/27 05:45:36;;;;;;;21.65;10.80;;;13.10;99.90;;;;;;4939745;28;20042;-83
2022/10/27 05:48:06;;;;;;;14.38;10.23;;;13.20;99.90;;;;;;4934872;28;20334;-78
2022/10/27 05:50:33;;;;;;;15.13;9.70;;;13.20;99.90;;;;;;4961581;28;20106;-86
2022/10/27 05:52:59;;;;;;;22.02;11.30;;;13.20;99.90;;;;;;4947941;28;20139;-81
2022/10/27 05:55:25;;;;;;;15.40;9.68;;;13.30;99.90;;;;;;4961708;28;20129;-85
2022/10/27 05:58:00;;;;;;;16.38;9.63;;;13.30;99.90;;;;;;4954655;28;20498;-86
2022/10/27 06:00:31;;;;;;;11.95;9.27;;;13.30;99.90;;;;;;4964347;28;20100;-81
2022/10/27 06:02:59;;;;;;;17.30;9.45;;;13.40;99.90;;;;;;4951207;28;20038;-86
2022/10/27 06:05:29;;;;;;;16.52;10.32;;;13.30;99.90;;;;;;4958164;28;20059;-79
2022/10/27 06:07:55;;;;;;;15.63;11.38;;;13.40;99.90;;;;;;4961170;28;20066;-83
2022/10/27 06:10:21;;;;;;;15.07;9.52;;;13.30;99.90;;;;;;4933541;28;20055;-79
2022/10/27 06:12:47;;;;;;;18.38;11.07;;;13.30;99.90;;;;;;4951997;28;20043;-85
2022/10/27 06:15:13;;;;;;;11.63;9.18;;;13.30;99.90;;;;;;4954651;28;20085;-85
2022/10/27 06:17:38;;;;;;;18.48;10.45;;;13.30;99.90;;;;;;4937149;28;20047;-84
2022/10/27 06:20:04;;;;;;;24.83;11.40;;;13.30;99.90;;;;;;4955543;28;20126;-86
2022/10/27 06:22:30;;;;;;;17.00;9.98;;;13.20;99.90;;;;;;4932430;28;20047;-78
2022/10/27 06:24:56;;;;;;;16.08;10.80;;;13.30;99.90;;;;;;4925950;29;20059;-85
2022/10/27 06:27:21;;;;;;;15.23;10.30;;;13.20;99.90;;;;;;4942147;28;20039;-82
2022/10/27 06:29:47;;;;;;;14.65;10.88;;;13.30;99.90;;;;;;4952714;28;20046;-84
2022/10/27 06:32:13;;;;;;;15.63;11.70;;;13.30;99.90;;;;;;4939139;28;20135;-82
2022/10/27 06:34:38;;;;;;;13.20;8.45;;;13.40;99.90;;;;;;4939717;28;20052;-85
2022/10/27 06:37:04;;;;;;;14.05;9.02;;;13.30;99.90;;;;;;4932214;29;20444;-75
2022/10/27 06:39:30;;;;;;;20.08;9.60;;;13.40;99.90;;;;;;4942435;28;20566;-85
2022/10/27 06:41:56;;;;;;;18.90;8.93;;;13.40;99.90;;;;;;4946624;28;20043;-75
2022/10/27 06:44:23;;;;;;;16.77;10.43;;;13.40;99.90;;;;;;4936267;28;20055;-80
2022/10/27 06:46:49;;;;;;;16.85;9.23;;;13.30;99.90;;;;;;4949548;28;20046;-82
2022/10/27 06:49:14;;;;;;;15.90;10.30;;;13.30;99.90;;;;;;4938333;28;20142;-80
2022/10/27 06:51:40;;;;;;;15.48;9.75;;;13.40;99.90;;;;;;4974028;28;20110;-81
2022/10/27 06:54:05;;;;;;;16.85;9.88;;;13.30;99.90;;;;;;4946576;29;20047;-76
2022/10/27 06:56:31;;;;;;;15.48;9.07;;;13.40;99.90;;;;;;4950475;28;20055;-79
2022/10/27 06:58:57;;;;;;;19.15;10.23;;;13.40;99.90;;;;;;4921122;28;20051;-78
2022/10/27 07:01:22;;;;;;;12.98;9.70;;;13.30;99.90;;;;;;4958463;28;20043;-74
2022/10/27 07:03:50;;;;;;;18.00;9.50;;;13.30;99.90;;;;;;4961881;28;20047;-80
2022/10/27 07:06:15;;;;;;;14.90;8.30;;;13.40;99.90;;;;;;4962130;28;20059;-80
2022/10/27 07:08:41;;;;;;;19.55;9.07;;;13.30;99.90;;;;;;4938745;28;20043;-80
2022/10/27 07:11:08;;;;;;;15.18;8.57;;;13.40;99.90;;;;;;4942206;28;20045;-75
2022/10/27 07:13:34;;;;;;;18.30;10.30;;;13.40;99.90;;;;;;4932487;28;20047;-74
2022/10/27 07:15:59;;;;;;;13.05;7.80;;;13.40;99.90;;;;;;4926393;28;20047;-77
2022/10/27 07:18:25;;;;;;;15.45;8.90;;;13.40;99.90;;;;;;4954142;28;20054;-80
2022/10/27 07:20:52;;;;;;;19.73;9.82;;;13.30;99.90;;;;;;4948744;28;20498;-76
2022/10/27 07:23:19;;;;;;;16.33;8.30;;;13.40;99.90;;;;;;4933181;28;20044;-79
2022/10/27 07:25:48;;;;;;;15.13;8.60;;;13.50;99.90;;;;;;4940526;29;20043;-81
2022/10/27 07:28:14;;;;;;;12.45;7.25;;;13.50;99.90;;;;;;4939652;28;20039;-75
2022/10/27 07:30:43;;;;;;;10.93;8.20;;;13.40;99.90;;;;;;4942477;28;20454;-79
2022/10/27 07:33:10;;;;;;;16.67;8.07;;;13.50;99.90;;;;;;4934465;29;20509;-76
2022/10/27 07:35:36;;;;;;;13.48;7.47;;;13.50;99.90;;;;;;4949969;28;20210;-76
2022/10/27 07:38:02;;;;;;;20.08;7.95;;;13.60;99.90;;;;;;4934249;28;20451;-78
2022/10/27 07:40:28;;;;;;;15.07;7.68;;;13.60;99.90;;;;;;4951541;28;20074;-77
2022/10/27 07:42:55;;;;;;;12.77;6.75;;;13.60;99.90;;;;;;4951980;28;20078;-78
2022/10/27 07:45:23;;;;;;;13.15;7.32;;;13.70;99.90;;;;;;4934666;29;20050;-81
2022/10/27 07:47:50;;;;;;;14.77;7.93;;;13.80;99.90;;;;;;4951393;29;20463;-78
2022/10/27 07:50:18;;;;;;;11.43;6.15;;;13.70;99.90;;;;;;4945550;28;20051;-74
2022/10/27 07:52:47;;;;;;;10.48;6.57;;;13.80;99.90;;;;;;4941508;28;20506;-80
2022/10/27 07:55:14;;;;;;;18.85;7.40;;;13.90;99.90;;;;;;4933002;28;20047;-80
2022/10/27 07:57:42;;;;;;;13.23;7.25;;;13.90;99.90;;;;;;4940791;28;20049;-79
2022/10/27 08:00:10;;;;;;;6.80;5.85;;;14.00;99.90;;;;;;4946318;28;20135;-77
2022/10/27 08:02:36;;;;;;;10.52;6.35;;;14.00;99.90;;;;;;4932410;29;20040;-79
2022/10/27 08:05:02;;;;;;;9.38;7.07;;;14.00;99.90;;;;;;4915576;29;20044;-78
2022/10/27 08:07:27;;;;;;;10.82;8.48;;;14.00;99.90;;;;;;4945345;28;20490;-77
2022/10/27 08:09:53;;;;;;;14.48;6.57;;;14.10;99.90;;;;;;4964015;28;20785;-79
2022/10/27 08:12:19;;;;;;;11.60;7.05;;;14.10;99.90;;;;;;4931563;29;20050;-78
2022/10/27 08:14:45;;;;;;;13.13;7.60;;;14.10;99.90;;;;;;4927917;28;20119;-80
2022/10/27 08:17:12;;;;;;;12.23;6.82;;;14.10;99.90;;;;;;4952334;28;20096;-78
2022/10/27 08:19:38;;;;;;;13.70;7.55;;;14.10;99.90;;;;;;4915298;28;20043;-79
2022/10/27 08:22:04;;;;;;;10.40;6.32;;;14.10;99.90;;;;;;4920507;29;20066;-78
2022/10/27 08:24:30;;;;;;;14.23;7.18;;;14.10;99.90;;;;;;4950485;28;20135;-78
2022/10/27 08:26:55;;;;;;;9.02;5.22;;;14.10;99.90;;;;;;4955478;28;22151;-77
2022/10/27 08:29:21;;;;;;;10.63;6.00;;;14.10;99.90;;;;;;4963138;28;20043;-76
2022/10/27 08:31:47;;;;;;;12.20;5.43;;;14.20;99.90;;;;;;4950605;28;20043;-77
2022/10/27 08:34:12;;;;;;;17.23;6.30;;;14.40;99.90;;;;;;4950446;28;20129;-77
2022/10/27 08:36:38;;;;;;;15.63;7.72;;;14.40;99.90;;;;;;4919040;28;20131;-83
2022/10/27 08:39:11;;;;;;;13.18;6.88;;;14.50;99.90;;;;;;4934682;28;20134;-83
2022/10/27 08:41:50;;;;;;;10.18;6.30;;;14.60;99.90;;;;;;4950413;28;20079;-75
2022/10/27 08:44:18;;;;;;;7.65;4.97;;;14.80;99.90;;;;;;4951151;28;20399;-75
2022/10/27 08:47:03;;;;;;;10.13;5.97;;;14.90;99.90;;;;;;4951681;28;20043;-83
2022/10/27 08:49:40;;;;;;;15.88;7.13;;;15.10;99.90;;;;;;4943601;28;20043;-81
2022/10/27 08:52:29;;;;;;;11.25;5.75;;;15.20;99.90;;;;;;4952897;29;20043;-80
2022/10/27 08:55:14;;;;;;;6.95;4.38;;;15.30;99.90;;;;;;4956537;28;20074;-76
2022/10/27 08:57:47;;;;;;;7.88;5.03;;;15.50;99.90;;;;;;4949325;28;20066;-80
2022/10/27 09:00:13;;;;;;;10.48;4.90;;;15.50;99.90;;;;;;4920540;29;20400;-81
2022/10/27 09:03:00;;;;;;;10.18;6.07;;;15.60;99.90;;;;;;4929803;29;20395;-78
2022/10/27 09:05:58;;;;;;;6.82;4.57;;;15.70;99.90;;;;;;4937239;28;20387;-82
2022/10/27 09:08:44;;;;;;;10.95;5.32;;;15.70;99.90;;;;;;4954740;28;20502;-82
2022/10/27 09:11:31;;;;;;;9.65;5.45;;;15.70;99.90;;;;;;4920978;29;20187;-79
2022/10/27 09:14:15;;;;;;;7.20;4.78;;;15.80;99.90;;;;;;4934396;29;20136;-81
2022/10/27 09:17:02;;;;;;;6.25;4.07;;;15.80;99.90;;;;;;4927518;28;20039;-77
2022/10/27 09:19:34;;;;;;;12.27;5.53;;;15.90;99.90;;;;;;4946222;28;20079;-77
2022/10/27 09:22:03;;;;;;;13.00;5.80;;;15.90;99.90;;;;;;4959361;28;20047;-79
2022/10/27 09:24:33;;;;;;;7.95;4.30;;;16.00;99.90;;;;;;4952342;28;20050;-79
2022/10/27 09:27:01;;;;;;;11.98;4.55;;;16.00;99.90;;;;;;4932625;29;20105;-81
2022/10/27 09:29:30;;;;;;;10.70;4.85;;;16.10;99.90;;;;;;4930893;28;20051;-82
2022/10/27 09:32:14;;;;;;;11.25;4.75;;;16.10;99.90;;;;;;4939210;29;20084;-71
2022/10/27 09:34:50;;;;;;;8.02;4.13;;;16.20;99.90;;;;;;4951254;28;20071;-73
2022/10/27 09:37:18;;;;;;;12.43;4.45;;;16.20;99.90;;;;;;4919859;29;20592;-77
2022/10/27 09:39:51;;;;;;;8.60;4.05;;;16.30;99.90;;;;;;4941860;28;20047;-80
2022/10/27 09:42:17;;;;;;;8.45;4.80;;;16.40;99.90;;;;;;4937375;29;20066;-82
2022/10/27 09:44:57;;;;;;;9.57;3.88;;;16.40;99.90;;;;;;4948966;28;20047;-82
2022/10/27 09:47:26;;;;;;;9.80;3.90;;;16.40;99.90;;;;;;4907726;28;20050;-81
2022/10/27 09:49:52;;;;;;;7.10;4.00;;;16.40;99.90;;;;;;4951529;29;20463;-75
2022/10/27 09:52:33;;;;;;;13.38;5.53;;;16.40;99.90;;;;;;4951636;29;20073;-81
2022/10/27 09:54:59;;;;;;;7.97;4.13;;;16.40;99.90;;;;;;4952495;28;20516;-83
2022/10/27 09:57:30;;;;;;;11.32;3.67;;;16.50;99.90;;;;;;4973694;28;20034;-74
2022/10/27 09:59:59;;;;;;;13.25;4.07;;;16.60;99.90;;;;;;4959923;28;20070;-83
2022/10/27 10:02:35;;;;;;;8.20;3.92;;;16.60;99.90;;;;;;4924001;29;20409;-74
2022/10/27 10:05:05;;;;;;;7.57;3.08;;;16.60;99.90;;;;;;4938286;28;20047;-84
2022/10/27 10:07:39;;;;;;;9.90;3.60;;;16.70;99.90;;;;;;4936451;28;20497;-82
2022/10/27 10:10:23;;;;;;;8.27;3.97;;;16.90;99.90;;;;;;4942531;28;20578;-83
2022/10/27 10:13:02;;;;;;;4.57;2.75;;;17.00;99.90;;;;;;4931826;29;20044;-82
2022/10/27 10:15:29;;;;;;;6.05;3.30;;;17.10;99.90;;;;;;4958308;28;20062;-80
2022/10/27 10:17:58;;;;;;;7.50;3.03;;;17.10;99.90;;;;;;4951998;28;20388;-82
2022/10/27 10:20:38;;;;;;;9.27;3.35;;;17.10;99.90;;;;;;4945485;28;20085;-76
2022/10/27 10:23:20;;;;;;;5.63;2.55;;;17.20;99.90;;;;;;4957704;28;20071;-81
2022/10/27 10:25:48;;;;;;;9.27;2.70;;;17.20;99.90;;;;;;4949956;28;20186;-76
2022/10/27 10:28:28;;;;;;;7.65;2.92;;;17.30;99.90;;;;;;4933128;29;20085;-79
2022/10/27 10:30:55;;;;;;;7.68;2.88;;;17.30;99.90;;;;;;4950829;28;20050;-78
2022/10/27 10:33:25;;;;;;;8.13;3.58;;;17.40;99.90;;;;;;4950342;28;20043;-80
2022/10/27 10:35:51;;;;;;;6.93;2.25;;;17.40;99.90;;;;;;4964241;28;20146;-82
2022/10/27 10:38:23;;;;;;;8.82;2.80;;;17.40;99.90;;;;;;4933120;29;20110;-78
2022/10/27 10:41:10;;;;;;;9.30;2.78;;;17.40;99.90;;;;;;4939140;28;20119;-77
2022/10/27 10:43:36;;;;;;;9.60;2.20;;;17.50;99.90;;;;;;4929546;28;20047;-74
2022/10/27 10:46:03;;;;;;;7.60;2.97;;;17.70;99.90;;;;;;4960557;28;20354;-75
2022/10/27 10:48:30;;;;;;;4.70;1.92;;;17.80;99.90;;;;;;4957225;28;20110;-76
2022/10/27 10:50:57;;;;;;;7.15;2.90;;;17.90;99.90;;;;;;4933685;29;20440;-74
2022/10/27 10:53:30;;;;;;;8.98;2.30;;;17.90;99.90;;;;;;4931651;28;20075;-71
2022/10/27 10:56:00;;;;;;;4.20;2.00;;;17.90;99.90;;;;;;4930978;28;20042;-75
2022/10/27 10:58:28;;;;;;;7.28;2.00;;;17.90;99.90;;;;;;4913224;29;20062;-73
2022/10/27 11:01:03;;;;;;;3.78;1.88;;;18.00;99.90;;;;;;4941382;28;20110;-73
2022/10/27 11:03:33;;;;;;;6.97;2.03;;;18.10;99.90;;;;;;4958405;28;20394;-74
2022/10/27 11:06:02;;;;;;;4.05;1.70;;;18.10;99.90;;;;;;4944197;28;20079;-75
2022/10/27 11:08:41;;;;;;;7.55;2.38;;;18.20;99.90;;;;;;4930793;29;20392;-74
2022/10/27 11:11:15;;;;;;;3.47;2.05;;;18.10;99.90;;;;;;4957831;28;20162;-73
2022/10/27 11:14:08;;;;;;;8.20;1.75;;;18.20;99.90;;;;;;4949837;28;20586;-74
2022/10/27 11:16:36;;;;;;;8.55;1.73;;;18.20;99.90;;;;;;4938595;28;20094;-74
2022/10/27 11:19:08;;;;;;;6.80;1.98;;;18.20;99.90;;;;;;4952926;28;20043;-74
2022/10/27 11:21:49;;;;;;;4.35;2.30;;;18.20;99.90;;;;;;4938556;28;20083;-73
2022/10/27 11:24:38;;;;;;;9.27;3.05;;;18.30;99.90;;;;;;4952108;28;20047;-73
2022/10/27 11:27:53;;;;;;;5.35;1.30;;;18.50;99.90;;;;;;4938767;29;20055;-75
2022/10/27 11:30:26;;;;;;;5.20;2.42;;;18.60;99.90;;;;;;4916557;28;20112;-79
2022/10/27 11:33:10;;;;;;;7.00;1.58;;;18.60;99.90;;;;;;4932694;28;20468;-78
2022/10/27 11:36:05;;;;;;;5.55;3.13;;;18.80;99.90;;;;;;4955156;28;20116;-77
2022/10/27 11:38:46;;;;;;;6.82;1.90;;;18.80;99.90;;;;;;4945445;28;20058;-78
2022/10/27 11:41:43;;;;;;;9.57;2.63;;;18.80;99.90;;;;;;4954179;28;20066;-74
2022/10/27 11:44:23;;;;;;;3.10;1.38;;;18.90;99.90;;;;;;4936499;28;20225;-76
2022/10/27 11:47:16;;;;;;;4.38;2.22;;;18.90;99.90;;;;;;4949433;28;20474;-77
2022/10/27 11:49:54;;;;;;;9.55;2.25;;;18.90;99.90;;;;;;4939729;28;20052;-75
2022/10/27 11:52:33;;;;;;;9.38;1.65;;;18.80;99.90;;;;;;4937133;28;20369;-73
2022/10/27 11:55:02;;;;;;;5.30;1.90;;;18.80;99.90;;;;;;4944621;28;20051;-78
2022/10/27 11:57:39;;;;;;;6.25;1.60;;;18.90;99.90;;;;;;4912769;29;20311;-78
2022/10/27 12:00:22;;;;;;;4.65;1.30;;;19.00;99.90;;;;;;4936551;28;20051;-78
2022/10/27 12:02:54;;;;;;;4.30;1.08;;;19.10;99.90;;;;;;4948318;28;20090;-77
2022/10/27 12:05:58;;;;;;;3.17;1.20;;;19.20;99.90;;;;;;4961304;28;20051;-76
2022/10/27 12:08:32;;;;;;;5.60;2.78;;;19.30;99.90;;;;;;4881756;29;20063;-75
2022/10/27 12:11:45;;;;;;;10.95;1.35;;;19.30;99.90;;;;;;4930911;29;20052;-78
2022/10/27 12:14:29;;;;;;;4.00;1.15;;;19.30;99.90;;;;;;4890420;28;20055;-79
2022/10/27 12:17:07;;;;;;;4.22;1.48;;;19.50;99.90;;;;;;4958238;28;20047;-78
2022/10/27 12:19:38;;;;;;;5.10;1.20;;;19.40;99.90;;;;;;4963915;28;20053;-76
2022/10/27 12:22:29;;;;;;;7.07;1.05;;;19.50;99.90;;;;;;4981621;28;20465;-77
2022/10/27 12:25:13;;;;;;;6.95;1.55;;;19.50;99.90;;;;;;4956324;28;20047;-75
2022/10/27 12:27:44;;;;;;;4.63;1.13;;;19.60;99.90;;;;;;4929411;28;20387;-79
2022/10/27 12:30:15;;;;;;;4.60;1.02;;;19.60;99.90;;;;;;4949985;28;20054;-78
2022/10/27 12:32:45;;;;;;;3.38;0.70;;;19.60;99.90;;;;;;4951236;28;20081;-78
2022/10/27 12:35:23;;;;;;;5.47;1.48;;;19.60;99.90;;;;;;4940670;28;20039;-78
2022/10/27 12:38:04;;;;;;;2.17;0.70;;;19.50;99.90;;;;;;4947713;28;20039;-76
2022/10/27 12:40:47;;;;;;;2.70;0.63;;;19.50;99.90;;;;;;4940469;28;20116;-77
2022/10/27 12:43:54;;;;;;;5.78;0.80;;;19.50;99.90;;;;;;4961811;28;20470;-78
2022/10/27 12:46:50;;;;;;;2.35;0.65;;;19.40;99.90;;;;;;4892635;29;20051;-78
2022/10/27 12:49:44;;;;;;;10.70;1.15;;;19.40;99.90;;;;;;4951761;28;20102;-76
2022/10/27 12:52:24;;;;;;;3.88;1.02;;;19.40;99.90;;;;;;4937345;28;20043;-78
2022/10/27 12:55:11;;;;;;;4.15;0.90;;;19.50;99.90;;;;;;4951214;28;20114;-78
2022/10/27 12:57:42;;;;;;;2.63;0.70;;;19.50;99.90;;;;;;4929620;28;20062;-78
2022/10/27 13:00:11;;;;;;;4.18;1.38;;;19.40;99.90;;;;;;4930611;29;20068;-79